Nearby METAR Reports

Sorted by Distance from Carson Valley Weather Station - Minden, Nevada

 

KMEV - Minden, Nevada, USA
Distance from station: SSW 3mi, 5km
Updated: Fri, 22-Mar-2019 7:35am PDT
Clear
Clear
 Wind from calm
Wind: Calm
Temperature: 27°F , -3°C
Dew Point: 27°F , -3°C
Humidity: 100%
Barometer: 30.12 inHg , 1020 hPa
Clouds: Clear
Visibility: 10 miles , 16 km
2019/03/22 14:35 KMEV 221435Z AUTO 00000KT 10SM CLR M03/M03 A3012 RMK AO2
KCXP - Carson City, Nevada, USA
Distance from station: N 10mi, 16km
Updated: Fri, 22-Mar-2019 7:35am PDT
Clear
Clear
 Wind from calm
Wind: Calm
Temperature: 34°F , 1°C
Dew Point: 25°F , -4°C
Humidity: 70%
Barometer: 30.11 inHg , 1019.6 hPa
Clouds: Clear
Visibility: 10 miles , 16 km
2019/03/22 14:35 KCXP 221435Z AUTO 00000KT 10SM CLR 01/M04 A3011 RMK AO2
 
KTVL - South Lake Tahoe, California, USA
Distance from station: WSW 18mi, 29km
Updated: Fri, 22-Mar-2019 6:53am PDT
Clear
Clear
 Wind from S
Wind: S 3 mph , 6 km/h
Temperature: 21°F , -6°C
Dew Point: 19°F , -7°C
Humidity: 93%
Barometer: 30.10 inHg , 1019.3 hPa
Clouds: Clear
Visibility: 10 miles , 16 km
2019/03/22 13:53 KTVL 221353Z AUTO 19003KT 10SM CLR M06/M07 A3010 RMK AO2 SLP199 T10561072
KTRK - Truckee Tahoe, California, USA
Distance from station: NW 29mi, 46km
Updated: Fri, 22-Mar-2019 7:45am PDT
Clear
Clear
 Wind from calm
Wind: Calm
Temperature: 21°F , -6°C
Dew Point: 21°F , -6°C
Humidity: 100%
Barometer: 30.13 inHg , 1020.3 hPa
Clouds: Clear
Visibility: 10 miles , 16 km
2019/03/22 14:45 KTRK 221445Z 00000KT 10SM SKC M06/M06 A3013
 
KRNO - Reno, Nevada, USA
Distance from station: N 32mi, 51km
Updated: Fri, 22-Mar-2019 6:55am PDT
Few Clouds
Few Clouds
 Wind from varies
Wind: varies 5 mph , 7 km/h
Temperature: 34°F , 1°C
Wind Chill: 29°F , -2°C
Dew Point: 27°F , -3°C
Humidity: 75%
Barometer: 30.10 inHg , 1019.3 hPa
Clouds: Few Clouds
Visibility: 10 miles , 16 km
Cloud details: Few Clouds 6000 ft
Few Clouds 20000 ft
2019/03/22 13:55 KRNO 221355Z VRB04KT 10SM FEW060 FEW200 01/M03 A3010 RMK AO2 SLP187 T00111033
KRTS - Reno/Stead, Nevada, USA
Distance from station: NNW 44mi, 71km
Updated: Fri, 22-Mar-2019 7:35am PDT
Clear
Clear
 Wind from calm
Wind: Calm
Temperature: 30°F , -1°C
Dew Point: 25°F , -4°C
Humidity: 80%
Barometer: 30.09 inHg , 1019 hPa
Clouds: Clear
Visibility: 10 miles , 16 km
2019/03/22 14:35 KRTS 221435Z AUTO 00000KT 10SM CLR M01/M04 A3009 RMK AO2
 
KBAN - Bridgeport(Mcmwt, California, USA
Distance from station: SSE 49mi, 79km
Updated: Fri, 22-Mar-2019 7:52am PDT
Clear
Clear
 Wind from calm
Wind: Calm
Temperature: 27°F , -3°C
Dew Point: 10°F , -12°C
Humidity: 50%
Barometer: 30.09 inHg , 1019 hPa
Clouds: Clear
Visibility: 10 miles , 16 km
2019/03/22 14:52 KBAN 221452Z AUTO 00000KT 10SM CLR M03/M12 A3009 RMK AO2 SLP192 T10331117 51011 FZRA
KBLU - Emigrant Gap, California, USA
Distance from station: WNW 55mi, 89km
Updated: Fri, 22-Mar-2019 7:36am PDT
Partly cloudy
Partly cloudy
 Wind from ESE
Wind: ESE 3 mph , 6 km/h
Temperature: 32°F , 0°C
Dew Point: 30°F , -1°C
Humidity: 93%
Barometer: 30.13 inHg , 1020.3 hPa
Clouds: Partly cloudy
Visibility: 10 miles , 16 km
Cloud details: Partly cloudy 900 ft
2019/03/22 14:36 KBLU 221436Z AUTO 12003KT 10SM SCT009 00/M01 A3013 RMK AO2 T00001011 TSNO $
 
KPVF - Placerville, California, USA
Distance from station: WSW 60mi, 96km
Updated: Fri, 22-Mar-2019 7:35am PDT
Clear
Clear
 Wind from ESE
Wind: ESE 9 mph , 15 km/h
Temperature: 43°F , 6°C
Wind Chill: 38°F , 3°C
Dew Point: 36°F , 2°C
Humidity: 76%
Barometer: 30.15 inHg , 1021 hPa
Clouds: Clear
Visibility: 10 miles , 16 km
2019/03/22 14:35 KPVF 221435Z AUTO 12008KT 10SM CLR 06/02 A3015 RMK AO1
KNFL - Fallon Nas, Nevada, USA
Distance from station: ENE 61mi, 97km
Updated: Fri, 22-Mar-2019 6:56am PDT
Few Clouds
Few Clouds
 Wind from W
Wind: W 8 mph , 13 km/h
Temperature: 36°F , 2°C
Wind Chill: 30°F , -1°C
Dew Point: 30°F , -1°C
Humidity: 81%
Barometer: 30.08 inHg , 1018.6 hPa
Clouds: Few Clouds
Visibility: 10 miles , 16 km
Cloud details: Few Clouds 5000 ft
2019/03/22 13:56 KNFL 221356Z AUTO 26007KT 10SM FEW050 02/M01 A3008 RMK AO2 SLP154 T00221011
 
KHTH - Hawthorne, Nevada, USA
Distance from station: ESE 68mi, 109km
Updated: Fri, 22-Mar-2019 7:35am PDT
Clear
Clear
 Wind from calm
Wind: Calm
Temperature: 36°F , 2°C
Dew Point: 30°F , -1°C
Humidity: 81%
Barometer: 30.09 inHg , 1019 hPa
Clouds: Clear
Visibility: 10 miles , 16 km
2019/03/22 14:35 KHTH 221435Z AUTO 00000KT 10SM CLR 02/M01 A3009 RMK A01
KGOO - Grass Valley, California, USA
Distance from station: W 70mi, 112km
Updated: Fri, 22-Mar-2019 7:40am PDT
Clear
Clear
 Wind from SE
Wind: SE 3 mph , 6 km/h
Temperature: 37°F , 3°C
Dew Point: 36°F , 2°C
Humidity: 93%
Barometer: 30.13 inHg , 1020.3 hPa
Clouds: Clear
Visibility: 10 miles , 16 km
2019/03/22 14:40 KGOO 221440Z AUTO 13003KT 10SM CLR 03/02 A3013 RMK AO1
 
KAUN - Auburn Muni, California, USA
Distance from station: W 73mi, 118km
Updated: Fri, 22-Mar-2019 7:35am PDT
Clear
Clear
 
Temperature: 45°F , 7°C
Dew Point: 39°F , 4°C
Humidity: 81%
Barometer: 30.15 inHg , 1021 hPa
Clouds: Clear
Visibility: 10 miles , 16 km
2019/03/22 14:35 KAUN 221435Z AUTO 10SM CLR 07/04 A3015 RMK A01
KO22 - Columbia, California, USA
Distance from station: SSW 79mi, 127km
Updated: Fri, 22-Mar-2019 7:35am PDT
Clear
Clear
 Wind from calm
Wind: Calm
Temperature: 39°F , 4°C
Dew Point: 39°F , 4°C
Humidity: 100%
Barometer: 30.16 inHg , 1021.3 hPa
Clouds: Clear
Visibility: 9 miles , 14 km
2019/03/22 14:35 KO22 221435Z AUTO 00000KT 9SM CLR 04/04 A3016 RMK A01
 
KLHM - Lincoln, California, USA
Distance from station: W 88mi, 141km
Updated: Fri, 22-Mar-2019 7:35am PDT
Clear
Clear
 Wind from ESE
Wind: ESE 8 mph , 13 km/h
Temperature: 48°F , 9°C
Wind Chill: 44°F , 7°C
Dew Point: 41°F , 5°C
Humidity: 76%
Barometer: 30.15 inHg , 1021 hPa
Clouds: Clear
Visibility: 10 miles , 16 km
2019/03/22 14:35 KLHM 221435Z AUTO 12007KT 10SM CLR 09/05 A3015 RMK AO1
KBAB - Beale Afb/Marysv, California, USA
Distance from station: W 91mi, 147km
Updated: Fri, 22-Mar-2019 4:58am PDT
NOT Current
Clear
Clear
 Wind from SE
Wind: SE 7 mph , 11 km/h
Temperature: 43°F , 6°C
Wind Chill: 39°F , 4°C
Dew Point: 37°F , 3°C
Humidity: 81%
Barometer: 30.12 inHg , 1020 hPa
Clouds: Clear
Visibility: 10 miles , 16 km
2019/03/22 11:58 KBAB 221158Z AUTO 14006KT 10SM CLR 06/03 A3012 RMK AO2 SLP203 T00560034 10105 20054 55003 $
 
KMHR - Mather Field, California, USA
Distance from station: WSW 91mi, 147km
Updated: Fri, 22-Mar-2019 7:45am PDT
Mostly cloudy
Mostly cloudy
 Wind from ESE
Wind: ESE 5 mph , 7 km/h
Temperature: 46°F , 8°C
Wind Chill: 44°F , 7°C
Dew Point: 45°F , 7°C
Humidity: 93%
Barometer: 30.16 inHg , 1021.3 hPa
Clouds: Mostly cloudy
Visibility: 10 miles , 16 km
Cloud details: Mostly cloudy 14000 ft
2019/03/22 14:45 KMHR 221445Z 12004KT 10SM BKN140 08/07 A3016
KLOL - Lovelock, Nevada, USA
Distance from station: NE 94mi, 151km
Updated: Fri, 22-Mar-2019 6:53am PDT
Mostly cloudy
Mostly cloudy
 Wind from calm
Wind: Calm
Temperature: 32°F , 0°C
Dew Point: 30°F , -1°C
Humidity: 93%
Barometer: 30.07 inHg , 1018.3 hPa
Clouds: Mostly cloudy
Visibility: 10 miles , 16 km
Cloud details: Mostly cloudy 5000 ft
2019/03/22 13:53 KLOL 221353Z AUTO 00000KT 10SM BKN050 00/M01 A3007 RMK AO2 SLP188 T00001011
 
KMCC - Mcclellan Afb, California, USA
Distance from station: WSW 94mi, 151km
Updated: Fri, 22-Mar-2019 7:35am PDT
Partly cloudy
Partly cloudy
 Wind from SE
Wind: SE 8 mph , 13 km/h
Temperature: 48°F , 9°C
Wind Chill: 44°F , 7°C
Dew Point: 46°F , 8°C
Humidity: 94%
Barometer: 30.18 inHg , 1022 hPa
Clouds: Partly cloudy
Visibility: 9 miles , 14 km
Cloud details: Partly cloudy 9500 ft
Partly cloudy 12000 ft
2019/03/22 14:35 KMCC 221435Z AUTO 13007KT 9SM SCT095 SCT120 09/08 A3018 RMK AO2
KMYV - Marysville, California, USA
Distance from station: W 99mi, 159km
Updated: Fri, 22-Mar-2019 6:53am PDT
Mostly cloudy
Mostly cloudy
 Wind from SE
Wind: SE 9 mph , 15 km/h
Temperature: 48°F , 9°C
Wind Chill: 44°F , 7°C
Dew Point: 43°F , 6°C
Humidity: 82%
Barometer: 30.15 inHg , 1021 hPa
Clouds: Mostly cloudy
Visibility: 10 miles , 16 km
Cloud details: Mostly cloudy 11000 ft
2019/03/22 13:53 KMYV 221353Z AUTO 13008KT 10SM BKN110 09/06 A3015 RMK AO2 SLP214 T00890056
 
KSVE - Susanville Muni, California, USA
Distance from station: NNW 102mi, 164km
Updated: Fri, 22-Mar-2019 7:35am PDT
Clear
Clear
 Wind from calm
Wind: Calm
Temperature: 32°F , 0°C
Dew Point: 28°F , -2°C
Humidity: 87%
Barometer: 30.10 inHg , 1019.3 hPa
Clouds: Clear
Visibility: 10 miles , 16 km
2019/03/22 14:35 KSVE 221435Z AUTO 00000KT 10SM CLR 00/M02 A3010 RMK AO2
KSAC - Sacramento, California, USA
Distance from station: WSW 103mi, 165km
Updated: Fri, 22-Mar-2019 6:53am PDT
Mostly cloudy
Mostly cloudy
 Wind from SSE
Wind: SSE 6 mph , 9 km/h
Temperature: 48°F , 9°C
Wind Chill: 45°F , 7°C
Dew Point: 46°F , 8°C
Humidity: 94%
Barometer: 30.16 inHg , 1021.3 hPa
Clouds: Mostly cloudy
Visibility: 10 miles , 16 km
Cloud details: Mostly cloudy 11000 ft
2019/03/22 13:53 KSAC 221353Z 15005KT 10SM BKN110 09/08 A3016 RMK AO2 SLP212 T00940078
 
KSMF - Sacramento/Metro, California, USA
Distance from station: WSW 104mi, 167km
Updated: Fri, 22-Mar-2019 6:53am PDT
Mostly cloudy
Mostly cloudy
 Wind from SE
Wind: SE 7 mph , 11 km/h
Temperature: 48°F , 9°C
Wind Chill: 45°F , 7°C
Dew Point: 46°F , 8°C
Humidity: 94%
Barometer: 30.15 inHg , 1021 hPa
Clouds: Mostly cloudy
Visibility: 10 miles , 16 km
Cloud details: Partly cloudy 5000 ft
Mostly cloudy 12000 ft
2019/03/22 13:53 KSMF 221353Z 14006KT 10SM SCT050 BKN120 09/08 A3015 RMK AO2 SLP208 T00940078
KOVE - Oroville, California, USA
Distance from station: WNW 106mi, 171km
Updated: Fri, 22-Mar-2019 6:53am PDT
Few Clouds
Few Clouds
 Wind from ESE
Wind: ESE 6 mph , 9 km/h
Temperature: 46°F , 8°C
Wind Chill: 43°F , 6°C
Dew Point: 41°F , 5°C
Humidity: 82%
Barometer: 30.16 inHg , 1021.3 hPa
Clouds: Few Clouds
Visibility: 10 miles , 16 km
Cloud details: Few Clouds 10000 ft
2019/03/22 13:53 KOVE 221353Z AUTO 12005KT 10SM FEW100 08/05 A3016 RMK AO2 SLP214 T00780050
 
KMMH - Mammoth/June Lak, California, USA
Distance from station: SSE 110mi, 177km
Updated: Fri, 22-Mar-2019 7:35am PDT
Clear
Clear
 Wind from calm
Wind: Calm
Temperature: 12°F , -11°C
Dew Point: 10°F , -12°C
Humidity: 92%
Barometer: 30.12 inHg , 1020 hPa
Clouds: Clear
Visibility: 10 miles , 16 km
2019/03/22 14:35 KMMH 221435Z AUTO 00000KT 10SM CLR M11/M12 A3012 RMK AO2 T11081123
KSCK - Stockton, California, USA
Distance from station: SW 114mi, 183km
Updated: Fri, 22-Mar-2019 6:55am PDT
Mostly cloudy
Mostly cloudy
 Wind from calm
Wind: Calm
Temperature: 45°F , 7°C
Dew Point: 43°F , 6°C
Humidity: 93%
Barometer: 30.16 inHg , 1021.3 hPa
Clouds: Mostly cloudy
Visibility: 10 miles , 16 km
Cloud details: Mostly cloudy 10000 ft
2019/03/22 13:55 KSCK 221355Z 00000KT 10SM BKN100 07/06 A3016 RMK AO2 SLP213 T00720056
 
KEDU - Davis, California, USA
Distance from station: WSW 116mi, 187km
Updated: Fri, 22-Mar-2019 7:35am PDT
Few Clouds
Few Clouds
 Wind from S
Wind: S 9 mph , 15 km/h
Temperature: 48°F , 9°C
Wind Chill: 44°F , 7°C
Dew Point: 46°F , 8°C
Humidity: 94%
Barometer: 30.16 inHg , 1021.3 hPa
Clouds: Few Clouds
Visibility: 10 miles , 16 km
Cloud details: Few Clouds 7500 ft
2019/03/22 14:35 KEDU 221435Z AUTO 17008KT 10SM FEW075 09/08 A3016 RMK AO1
KMOD - Modesto, California, USA
Distance from station: SW 119mi, 191km
Updated: Fri, 22-Mar-2019 6:53am PDT
Clear
Clear
 Wind from calm
Wind: Calm
Temperature: 45°F , 7°C
Dew Point: 41°F , 5°C
Humidity: 87%
Barometer: 30.17 inHg , 1021.7 hPa
Clouds: Clear
Visibility: 10 miles , 16 km
2019/03/22 13:53 KMOD 221353Z 00000KT 10SM CLR 07/05 A3017 RMK AO2 SLP215 T00720050
 
KMER - Merced/Castle Af, California, USA
Distance from station: SSW 123mi, 198km
Updated: Fri, 22-Mar-2019 7:45am PDT
Clear
Clear
 Wind from calm
Wind: Calm
Temperature: 43°F , 6°C
Dew Point: 43°F , 6°C
Humidity: 100%
Barometer: 30.19 inHg , 1022.4 hPa
Clouds: Clear
Visibility: 10 miles , 16 km
2019/03/22 14:45 KMER 221445Z 00000KT 10SM SKC 06/06 A3019
KCIC - Chico Municipal, California, USA
Distance from station: WNW 124mi, 199km
Updated: Fri, 22-Mar-2019 7:47am PDT
Overcast
Overcast
 Wind from SSE
Wind: SSE 14 mph , 22 km/h
Temperature: 48°F , 9°C
Wind Chill: 42°F , 6°C
Dew Point: 41°F , 5°C
Humidity: 76%
Barometer: 30.15 inHg , 1021 hPa
Clouds: Overcast
Visibility: 10 miles , 16 km
Cloud details: Mostly cloudy 10000 ft
Overcast 18000 ft
2019/03/22 14:47 KCIC 221447Z 15012KT 10SM BKN100 OVC180 09/05 A3015
 
KMCE - Merced, California, USA
Distance from station: SSW 128mi, 207km
Updated: Fri, 22-Mar-2019 6:53am PDT
Clear
Clear
 Wind from calm
Wind: Calm
Temperature: 43°F , 6°C
Dew Point: 41°F , 5°C
Humidity: 93%
Barometer: 30.17 inHg , 1021.7 hPa
Clouds: Clear
Visibility: 10 miles , 16 km
2019/03/22 13:53 KMCE 221353Z AUTO 00000KT 10SM CLR 06/05 A3017 RMK AO2 SLP216 T00610050
KVCB - Vacaville, California, USA
Distance from station: WSW 128mi, 207km
Updated: Fri, 22-Mar-2019 7:02am PDT
Overcast
Overcast
 Wind from S
Wind: S 5 mph , 7 km/h
Temperature: 52°F , 11°C
Dew Point: 46°F , 8°C
Humidity: 82%
Barometer: 30.16 inHg , 1021.3 hPa
Clouds: Overcast
Visibility: 10 miles , 16 km
Cloud details: Few Clouds 1700 ft
Overcast 9000 ft
2019/03/22 14:02 KVCB 221402Z AUTO 17004KT 10SM FEW017 OVC090 11/08 A3016 RMK AO2 T01060078
 
KSUU - Travis Afb/Fairf, California, USA
Distance from station: WSW 130mi, 209km
Updated: Fri, 22-Mar-2019 6:58am PDT
Mostly cloudy
Mostly cloudy
 Wind from SSE
Wind: SSE 3 mph , 6 km/h
Temperature: 48°F , 9°C
Dew Point: 46°F , 8°C
Humidity: 94%
Barometer: 30.15 inHg , 1021 hPa
Clouds: Mostly cloudy
Visibility: 10 miles , 16 km
Cloud details: Mostly cloudy 2400 ft
2019/03/22 13:58 KSUU 221358Z AUTO 16003KT 10SM BKN024 09/08 A3015 RMK AO2 SLP217 T00920078 $
KBIH - Bishop, California, USA
Distance from station: SE 137mi, 221km
Updated: Fri, 22-Mar-2019 6:56am PDT
Clear
Clear
 Wind from NNW
Wind: NNW 6 mph , 9 km/h
Temperature: 28°F , -2°C
Wind Chill: 21°F , -6°C
Dew Point: 25°F , -4°C
Humidity: 86%
Barometer: 30.09 inHg , 1019 hPa
Clouds: Clear
Visibility: 10 miles , 16 km
2019/03/22 13:56 KBIH 221356Z AUTO 34005KT 10SM CLR M02/M04 A3009 RMK AO2 SLP183 T10221039
 
KMAE - Madera, California, USA
Distance from station: S 144mi, 231km
Updated: Fri, 22-Mar-2019 6:53am PDT
Clear
Clear
 Wind from calm
Wind: Calm
Temperature: 45°F , 7°C
Dew Point: 39°F , 4°C
Humidity: 81%
Barometer: 30.18 inHg , 1022 hPa
Clouds: Clear
Visibility: 7 miles , 11 km
2019/03/22 13:53 KMAE 221353Z AUTO 00000KT 7SM CLR 07/04 A3018 RMK AO2 SLP221 T00670039
KCCR - Concord, California, USA
Distance from station: WSW 145mi, 233km
Updated: Fri, 22-Mar-2019 6:53am PDT
Light rain, Overcast
Light rain, Overcast
 Wind from SSW
Wind: SSW 7 mph , 11 km/h
Temperature: 52°F , 11°C
Dew Point: 46°F , 8°C
Humidity: 82%
Barometer: 30.16 inHg , 1021.3 hPa
Summary: Light rain
Clouds: Overcast
Visibility: 10 miles , 16 km
Cloud details: Mostly cloudy 5500 ft
Overcast 7000 ft
2019/03/22 13:53 KCCR 221353Z AUTO 21006KT 10SM -RA BKN055 OVC070 11/08 A3016 RMK AO2 RAB17 SLP198 P0000 T01060078
 
KLVK - Livermore, California, USA
Distance from station: SW 146mi, 236km
Updated: Fri, 22-Mar-2019 6:53am PDT
Overcast
Overcast
 Wind from E
Wind: E 3 mph , 6 km/h
Temperature: 45°F , 7°C
Dew Point: 43°F , 6°C
Humidity: 93%
Barometer: 30.15 inHg , 1021 hPa
Clouds: Overcast
Visibility: 10 miles , 16 km
Cloud details: Overcast 8000 ft
2019/03/22 13:53 KLVK 221353Z 08003KT 10SM OVC080 07/06 A3015 RMK AO2 SLP211 T00720056
KAPC - Napa, California, USA
Distance from station: WSW 150mi, 241km
Updated: Fri, 22-Mar-2019 6:54am PDT
Light rain, Overcast
Light rain, Overcast
 Wind from N
Wind: N 5 mph , 7 km/h
Temperature: 48°F , 9°C
Wind Chill: 46°F , 8°C
Dew Point: 45°F , 7°C
Humidity: 87%
Barometer: 30.15 inHg , 1021 hPa
Summary: Light rain
Clouds: Overcast
Visibility: 7 miles , 11 km
Cloud details: Overcast 4200 ft
2019/03/22 13:54 KAPC 221354Z 01004KT 7SM -RA OVC042 09/07 A3015 RMK AO2 SLP201 P0002 T00890072
 
KRBL - Red Bluff, California, USA
Distance from station: WNW 155mi, 249km
Updated: Fri, 22-Mar-2019 6:54am PDT
Mostly cloudy
Mostly cloudy
 Wind from ESE
Wind: ESE 6 mph , 9 km/h
Temperature: 46°F , 8°C
Wind Chill: 43°F , 6°C
Dew Point: 41°F , 5°C
Humidity: 82%
Barometer: 30.13 inHg , 1020.3 hPa
Clouds: Mostly cloudy
Visibility: 10 miles , 16 km
Cloud details: Mostly cloudy 11000 ft
2019/03/22 13:54 KRBL 221354Z AUTO 11005KT 10SM BKN110 08/05 A3013 RMK AO2 SLP202 T00830050
KFAT - Fresno, California, USA
Distance from station: S 156mi, 251km
Updated: Fri, 22-Mar-2019 6:53am PDT
Overcast
Overcast
 Wind from calm
Wind: Calm
Temperature: 45°F , 7°C
Dew Point: 43°F , 6°C
Humidity: 93%
Barometer: 30.18 inHg , 1022 hPa
Clouds: Overcast
Visibility: 10 miles , 16 km
Cloud details: Mostly cloudy 15000 ft
Overcast 20000 ft
2019/03/22 13:53 KFAT 221353Z 00000KT 10SM BKN150 OVC200 07/06 A3018 RMK AO2 SLP220 T00720056
 
KTPH - Tonopah, Nevada, USA
Distance from station: ESE 158mi, 254km
Updated: Fri, 22-Mar-2019 6:56am PDT
Clear
Clear
 Wind from N
Wind: N 9 mph , 15 km/h
Temperature: 36°F , 2°C
Wind Chill: 29°F , -2°C
Dew Point: 28°F , -2°C
Humidity: 75%
Barometer: 30.06 inHg , 1017.9 hPa
Clouds: Clear
Visibility: 10 miles , 16 km
2019/03/22 13:56 KTPH 221356Z AUTO 01008KT 10SM CLR 02/M02 A3006 RMK AO2 SLP171 T00171022
KFCH - Fresno Chandler, California, USA
Distance from station: S 161mi, 258km
Updated: Fri, 22-Mar-2019 7:35am PDT
Clear
Clear
 Wind from calm
Wind: Calm
Temperature: 45°F , 7°C
Dew Point: 43°F , 6°C
Humidity: 93%
Barometer: 30.19 inHg , 1022.4 hPa
Clouds: Clear
Visibility: 10 miles , 16 km
2019/03/22 14:35 KFCH 221435Z AUTO 00000KT 10SM CLR 07/06 A3019 RMK A01
 
KHWD - Hayward, California, USA
Distance from station: SW 161mi, 259km
Updated: Fri, 22-Mar-2019 6:54am PDT
Light rain, Overcast
Light rain, Overcast
 Wind from SE
Wind: SE 7 mph , 11 km/h
Temperature: 57°F , 14°C
Dew Point: 45°F , 7°C
Humidity: 63%
Barometer: 30.16 inHg , 1021.3 hPa
Summary: Light rain
Clouds: Overcast
Visibility: 10 miles , 16 km
Cloud details: Mostly cloudy 4400 ft
Overcast 6000 ft
2019/03/22 13:54 KHWD 221354Z 13006KT 10SM -RA BKN044 OVC060 14/07 A3016 RMK AO2 SLP221 P0000 T01440072
KOAK - Oakland, California, USA
Distance from station: SW 164mi, 264km
Updated: Fri, 22-Mar-2019 6:53am PDT
Light rain, Overcast
Light rain, Overcast
 Wind from ESE
Wind: ESE 9 mph , 15 km/h
Temperature: 52°F , 11°C
Dew Point: 48°F , 9°C
Humidity: 88%
Barometer: 30.16 inHg , 1021.3 hPa
Summary: Light rain
Clouds: Overcast
Visibility: 8 miles , 13 km
Cloud details: Overcast 3900 ft
2019/03/22 13:53 KOAK 221353Z 12008KT 8SM -RA OVC039 11/09 A3016 RMK AO2 SLP212 P0001 T01060094
 
KWMC - Winnemucca, Nevada, USA
Distance from station: NE 164mi, 264km
Updated: Fri, 22-Mar-2019 6:56am PDT
Mostly cloudy
Mostly cloudy
 Wind from WNW
Wind: WNW 6 mph , 9 km/h
Temperature: 39°F , 4°C
Wind Chill: 35°F , 2°C
Dew Point: 34°F , 1°C
Humidity: 81%
Barometer: 30.03 inHg , 1016.9 hPa
Clouds: Mostly cloudy
Visibility: 10 miles , 16 km
Cloud details: Mostly cloudy 4200 ft
Mostly cloudy 4900 ft
2019/03/22 13:56 KWMC 221356Z AUTO 30005KT 10SM BKN042 BKN049 04/01 A3003 RMK AO2 SLP165 T00390011
KDVO - Novato/Gnoss Fld, California, USA
Distance from station: WSW 165mi, 265km
Updated: Fri, 22-Mar-2019 7:35am PDT
Mist, Overcast
Mist, Overcast
 Wind from SE
Wind: SE 3 mph , 6 km/h
Temperature: 50°F , 10°C
Dew Point: 50°F , 10°C
Humidity: 100%
Barometer: 30.16 inHg , 1021.3 hPa
Summary: Mist
Clouds: Overcast
Visibility: 4 miles , 6 km
Cloud details: Few Clouds 900 ft
Partly cloudy 1300 ft
Overcast 2600 ft
2019/03/22 14:35 KDVO 221435Z AUTO 14003KT 4SM BR FEW009 SCT013 OVC026 10/10 A3016 RMK AO2
 
KO69 - Petaluma, California, USA
Distance from station: WSW 165mi, 265km
Updated: Fri, 22-Mar-2019 7:35am PDT
Mist, Overcast
Mist, Overcast
 Wind from SE
Wind: SE 3 mph , 6 km/h
Temperature: 50°F , 10°C
Dew Point: 50°F , 10°C
Humidity: 100%
Barometer: 30.15 inHg , 1021 hPa
Summary: Mist
Clouds: Overcast
Visibility: 5 miles , 8 km
Cloud details: Mostly cloudy 1200 ft
Mostly cloudy 1700 ft
Overcast 2600 ft
2019/03/22 14:35 KO69 221435Z AUTO 13003KT 5SM BR BKN012 BKN017 OVC026 10/10 A3015 RMK A01
KRHV - San Jose/Reid, California, USA
Distance from station: SW 165mi, 265km
Updated: Fri, 22-Mar-2019 7:49am PDT
Mostly cloudy
Mostly cloudy
 Wind from S
Wind: S 12 mph , 19 km/h
Temperature: 50°F , 10°C
Wind Chill: 45°F , 7°C
Dew Point: 45°F , 7°C
Humidity: 82%
Barometer: 30.16 inHg , 1021.3 hPa
Clouds: Mostly cloudy
Visibility: 10 miles , 16 km
Cloud details: Partly cloudy 3500 ft
Mostly cloudy 6000 ft
2019/03/22 14:49 KRHV 221449Z 19010KT 10SM SCT035 BKN060 10/07 A3016
 
KSJC - San Jose, California, USA
Distance from station: SW 166mi, 267km
Updated: Fri, 22-Mar-2019 6:53am PDT
Overcast
Overcast
 Wind from S
Wind: S 8 mph , 13 km/h
Temperature: 50°F , 10°C
Wind Chill: 47°F , 8°C
Dew Point: 46°F , 8°C
Humidity: 88%
Barometer: 30.16 inHg , 1021.3 hPa
Clouds: Overcast
Visibility: 10 miles , 16 km
Cloud details: Few Clouds 4500 ft
Mostly cloudy 6000 ft
Overcast 8000 ft
2019/03/22 13:53 KSJC 221353Z 17007KT 10SM FEW045 BKN060 OVC080 10/08 A3016 RMK AO2 RAB14E45 SLP213 P0000 T01000083
KE16 - San Martin, California, USA
Distance from station: SW 169mi, 273km
Updated: Wed, 20-Mar-2019 5:15pm PDT
NOT Current
Clear
Clear
 Wind from SSW
Wind: SSW 14 mph , 22 km/h
Temperature: 59°F , 15°C
Dew Point: 41°F , 5°C
Humidity: 51%
Barometer: 30.04 inHg , 1017.3 hPa
Clouds: Clear
Visibility: 10 miles , 16 km
2019/03/21 00:15 KE16 210015Z AUTO 21012KT 10SM CLR 15/05 A3004 RMK AO2
 
KPAO - Palo Alto, California, USA
Distance from station: SW 169mi, 273km
Updated: Fri, 22-Mar-2019 7:47am PDT
Light rain, Overcast
Light rain, Overcast
 Wind from SSE
Wind: SSE 6 mph , 9 km/h
Temperature: 48°F , 9°C
Wind Chill: 45°F , 7°C
Dew Point: 46°F , 8°C
Humidity: 94%
Barometer: 30.18 inHg , 1022 hPa
Summary: Light rain
Clouds: Overcast
Visibility: 10 miles , 16 km
Cloud details: Partly cloudy 2400 ft
Overcast 6000 ft
2019/03/22 14:47 KPAO 221447Z 15005KT 10SM -RA SCT024 OVC060 09/08 A3018
KNUQ - Moffett Nas/Mtn, California, USA
Distance from station: SW 170mi, 273km
Updated: Fri, 22-Mar-2019 6:56am PDT
Light rain, Overcast
Light rain, Overcast
 Wind from SSE
Wind: SSE 3 mph , 6 km/h
Temperature: 50°F , 10°C
Dew Point: 46°F , 8°C
Humidity: 88%
Barometer: 30.17 inHg , 1021.7 hPa
Summary: Light rain
Clouds: Overcast
Visibility: 10 miles , 16 km
Cloud details: Mostly cloudy 5500 ft
Overcast 7500 ft
2019/03/22 13:56 KNUQ 221356Z 16003KT 10SM -RA BKN055 OVC075 10/08 A3017 RMK AO2 RAB1257 SLP217 P0000 T01000078
 
KRDD - Redding, California, USA
Distance from station: NW 171mi, 275km
Updated: Fri, 22-Mar-2019 6:53am PDT
Overcast
Overcast
 Wind from S
Wind: S 3 mph , 6 km/h
Temperature: 48°F , 9°C
Dew Point: 43°F , 6°C
Humidity: 82%
Barometer: 30.11 inHg , 1019.6 hPa
Clouds: Overcast
Visibility: 10 miles , 16 km
Cloud details: Overcast 5000 ft
2019/03/22 13:53 KRDD 221353Z 19003KT 10SM OVC050 09/06 A3011 RMK AO2 SLP196 T00890056
KSTS - Santa Rosa, California, USA
Distance from station: WSW 171mi, 275km
Updated: Fri, 22-Mar-2019 7:00am PDT
Light rain, Mist, Overcast
Light rain, Mist, Overcast
 Wind from W
Wind: W 3 mph , 6 km/h
Temperature: 46°F , 8°C
Dew Point: 45°F , 7°C
Humidity: 93%
Barometer: 30.12 inHg , 1020 hPa
Summary: Light rain, Mist
Clouds: Overcast
Visibility: 6 miles , 10 km
Cloud details: Overcast 1700 ft
2019/03/22 14:00 KSTS 221400Z 26003KT 6SM -RA BR OVC017 08/07 A3012 RMK AO2 P0000 T00780072
 
KSQL - San Carlos Airpo, California, USA
Distance from station: SW 173mi, 278km
Updated: Fri, 22-Mar-2019 6:55am PDT
Light rain, Overcast
Light rain, Overcast
 Wind from S
Wind: S 3 mph , 6 km/h
Temperature: 48°F , 9°C
Dew Point: 45°F , 7°C
Humidity: 87%
Barometer: 30.16 inHg , 1021.3 hPa
Summary: Light rain
Clouds: Overcast
Visibility: 8 miles , 13 km
Cloud details: Overcast 3600 ft
2019/03/22 13:55 KSQL 221355Z AUTO 18003KT 8SM -RA OVC036 09/07 A3016 RMK AO2
KCVH - Hollister Muni, California, USA
Distance from station: SSW 174mi, 280km
Updated: Fri, 22-Mar-2019 7:35am PDT
Clear
Clear
 Wind from calm
Wind: Calm
Temperature: 45°F , 7°C
Dew Point: 41°F , 5°C
Humidity: 87%
Barometer: 30.20 inHg , 1022.7 hPa
Clouds: Clear
Visibility: 10 miles , 16 km
2019/03/22 14:35 KCVH 221435Z AUTO 00000KT 10SM CLR 07/05 A3020 RMK A01
 
KSFO - San Francisco, California, USA
Distance from station: SW 174mi, 280km
Updated: Fri, 22-Mar-2019 6:56am PDT
Overcast
Overcast
 Wind from ESE
Wind: ESE 7 mph , 11 km/h
Temperature: 52°F , 11°C
Dew Point: 45°F , 7°C
Humidity: 77%
Barometer: 30.15 inHg , 1021 hPa
Clouds: Overcast
Visibility: 9 miles , 14 km
Cloud details: Overcast 3300 ft
2019/03/22 13:56 KSFO 221356Z 12006KT 9SM OVC033 11/07 A3015 RMK AO2 RAE39 SLP209 P0001 T01110067
KAAT - Alturas, California, USA
Distance from station: NNW 175mi, 281km
Updated: Fri, 22-Mar-2019 6:55am PDT
Clear
Clear
 Wind from NE
Wind: NE 3 mph , 6 km/h
Temperature: 27°F , -3°C
Dew Point: 25°F , -4°C
Humidity: 93%
Barometer: 30.08 inHg , 1018.6 hPa
Clouds: Clear
Visibility: 10 miles , 16 km
2019/03/22 13:55 KAAT 221355Z AUTO 04003KT 10SM CLR M03/M04 A3008 RMK AO2 SLP191 T10281039
 
KBAM - Battle Mtn (vor), Nevada, USA
Distance from station: NE 182mi, 294km
Updated: Fri, 22-Mar-2019 7:35am PDT
Overcast
Overcast
 Wind from WSW
Wind: WSW 9 mph , 15 km/h
Temperature: 43°F , 6°C
Wind Chill: 38°F , 3°C
Dew Point: 41°F , 5°C
Humidity: 93%
Barometer: 30.02 inHg , 1016.6 hPa
Clouds: Overcast
Visibility: 10 miles , 16 km
Cloud details: Overcast 2500 ft
2019/03/22 14:35 KBAM 221435Z AUTO 24008KT 10SM OVC025 06/05 A3002 RMK AO1
KHAF - Half Moon Bay, California, USA
Distance from station: SW 184mi, 296km
Updated: Fri, 22-Mar-2019 7:35am PDT
Overcast
Overcast
 Wind from ESE
Wind: ESE 8 mph , 13 km/h
Temperature: 50°F , 10°C
Wind Chill: 47°F , 8°C
Dew Point: 46°F , 8°C
Humidity: 88%
Barometer: 30.16 inHg , 1021.3 hPa
Clouds: Overcast
Visibility: 7 miles , 11 km
Cloud details: Overcast 2400 ft
2019/03/22 14:35 KHAF 221435Z AUTO 12007KT 7SM OVC024 10/08 A3016 RMK AO2
 
KWVI - Watsonville, California, USA
Distance from station: SW 184mi, 296km
Updated: Fri, 22-Mar-2019 6:53am PDT
Light rain, Overcast
Light rain, Overcast
 Wind from calm
Wind: Calm
Temperature: 48°F , 9°C
Dew Point: 46°F , 8°C
Humidity: 94%
Barometer: 30.18 inHg , 1022 hPa
Summary: Light rain
Clouds: Overcast
Visibility: 10 miles , 16 km
Cloud details: Overcast 8500 ft
2019/03/22 13:53 KWVI 221353Z AUTO 00000KT 10SM -RA OVC085 09/08 A3018 RMK AO2 RAB47 SLP218 P0000 T00890078
KUKI - Ukiah, California, USA
Distance from station: W 187mi, 300km
Updated: Fri, 22-Mar-2019 7:23am PDT
Light rain, Overcast
Light rain, Overcast
 Wind from calm
Wind: Calm
Temperature: 43°F , 6°C
Dew Point: 39°F , 4°C
Humidity: 87%
Barometer: 30.13 inHg , 1020.3 hPa
Summary: Light rain
Clouds: Overcast
Visibility: 7 miles , 11 km
Cloud details: Overcast 2800 ft
2019/03/22 14:23 KUKI 221423Z AUTO 00000KT 7SM -RA OVC028 06/04 A3013 RMK AO2 P0002 T00610044
 
KHJO - Hanford, California, USA
Distance from station: S 188mi, 303km
Updated: Fri, 22-Mar-2019 7:34am PDT
Mist, Clear
Mist, Clear
 Wind from calm
Wind: Calm
Temperature: 43°F , 6°C
Dew Point: 41°F , 5°C
Humidity: 93%
Barometer: 30.19 inHg , 1022.4 hPa
Summary: Mist
Clouds: Clear
Visibility: 4 miles , 6 km
2019/03/22 14:34 KHJO 221434Z AUTO 00000KT 4SM BR CLR 06/05 A3019 RMK AO2 T00560050
KNLC - Lemoore Nas/Reev, California, USA
Distance from station: S 188mi, 303km
Updated: Fri, 22-Mar-2019 6:56am PDT
Partly cloudy
Partly cloudy
 Wind from calm
Wind: Calm
Temperature: 39°F , 4°C
Dew Point: 37°F , 3°C
Humidity: 93%
Barometer: 30.18 inHg , 1022 hPa
Clouds: Partly cloudy
Visibility: 10 miles , 16 km
Cloud details: Partly cloudy 19000 ft
2019/03/22 13:56 KNLC 221356Z 00000KT 10SM SCT190 04/03 A3018 RMK AO2 SLP221 RH/96 T00390033 PNO $
 
KVIS - Visalia Muni, California, USA
Distance from station: S 189mi, 304km
Updated: Fri, 22-Mar-2019 7:46am PDT
Mist, Clear
Mist, Clear
 Wind from calm
Wind: Calm
Temperature: 43°F , 6°C
Dew Point: 43°F , 6°C
Humidity: 100%
Barometer: 30.19 inHg , 1022.4 hPa
Summary: Mist
Clouds: Clear
Visibility: 2 miles , 3 km
2019/03/22 14:46 KVIS 221446Z AUTO 00000KT 2SM BR CLR 06/06 A3019 RMK AO2 VIS 3/4V5
KSNS - Salinas, California, USA
Distance from station: SSW 193mi, 311km
Updated: Fri, 22-Mar-2019 6:53am PDT
Overcast
Overcast
 Wind from SSE
Wind: SSE 9 mph , 15 km/h
Temperature: 46°F , 8°C
Wind Chill: 41°F , 5°C
Dew Point: 41°F , 5°C
Humidity: 82%
Barometer: 30.17 inHg , 1021.7 hPa
Clouds: Overcast
Visibility: 10 miles , 16 km
Cloud details: Partly cloudy 8000 ft
Mostly cloudy 9500 ft
Overcast 11000 ft
2019/03/22 13:53 KSNS 221353Z 15008KT 10SM SCT080 BKN095 OVC110 08/05 A3017 RMK AO2 SLP227 T00780050
 
K05U - Eureka, Nevada, USA
Distance from station: ENE 203mi, 326km
Updated: Thu, 21-Mar-2019 11:50pm PDT
NOT Current
Mist, Overcast
Mist, Overcast
 Wind from calm
Wind: Calm
Temperature: 32°F , 0°C
Dew Point: 32°F , 0°C
Humidity: 100%
Barometer: 29.99 inHg , 1015.6 hPa
Summary: Mist
Clouds: Overcast
Visibility: 1 1/2 miles , 2.4 km
Cloud details: Overcast 300 ft
2019/03/22 06:50 K05U 220650Z AUTO 00000KT 1 1/2SM BR OVC003 00/00 A2999 RMK A01
KP68 - Eureka, Nevada, USA
Distance from station: ENE 203mi, 326km
Updated: Thu, 21-Mar-2019 10:53pm PDT
NOT Current

 Wind from calm
Wind: Calm
Temperature: 32°F , 0°C
Dew Point: 32°F , 0°C
Humidity: 100%
Barometer: 29.98 inHg , 1015.2 hPa
2019/03/22 05:53 KP68 220553Z AUTO 00000KT 00/00 A2998 RMK AO1 SLP135 P0010 60080 T00000000 10044 20000 51007
 
KMRY - Monterey, California, USA
Distance from station: SW 206mi, 331km
Updated: Fri, 22-Mar-2019 6:54am PDT
Overcast
Overcast
 Wind from calm
Wind: Calm
Temperature: 50°F , 10°C
Dew Point: 37°F , 3°C
Humidity: 62%
Barometer: 30.18 inHg , 1022 hPa
Clouds: Overcast
Visibility: 10 miles , 16 km
Cloud details: Few Clouds 4600 ft
Mostly cloudy 7500 ft
Overcast 11000 ft
2019/03/22 13:54 KMRY 221354Z 00000KT 10SM FEW046 BKN075 OVC110 10/03 A3018 RMK AO2 RAB13E27 SLP231 P0000 T01000033
KO54 - Weaverville, California, USA
Distance from station: NW 207mi, 332km
Updated: Fri, 22-Mar-2019 7:35am PDT
Overcast
Overcast
 Wind from ENE
Wind: ENE 3 mph , 6 km/h
Temperature: 43°F , 6°C
Dew Point: 39°F , 4°C
Humidity: 87%
Barometer: 30.08 inHg , 1018.6 hPa
Clouds: Overcast
Visibility: 10 miles , 16 km
Cloud details: Few Clouds 3000 ft
Mostly cloudy 3600 ft
Overcast 5500 ft
2019/03/22 14:35 KO54 221435Z AUTO 07003KT 10SM FEW030 BKN036 OVC055 06/04 A3008 RMK AO1
 
KO86 - Trinity Center, California, USA
Distance from station: NW 207mi, 333km
Updated: Fri, 22-Mar-2019 7:35am PDT
Overcast
Overcast
 Wind from calm
Wind: Calm
Temperature: 39°F , 4°C
Dew Point: 37°F , 3°C
Humidity: 93%
Barometer: 30.10 inHg , 1019.3 hPa
Clouds: Overcast
Visibility: 10 miles , 16 km
Cloud details: Overcast 2600 ft
2019/03/22 14:35 KO86 221435Z AUTO 00000KT 10SM OVC026 04/03 A3010 RMK AO1
KMHS - Mount Shasta, California, USA
Distance from station: NW 209mi, 336km
Updated: Fri, 22-Mar-2019 6:56am PDT
Overcast
Overcast
 Wind from ESE
Wind: ESE 5 mph , 7 km/h
Temperature: 39°F , 4°C
Wind Chill: 35°F , 2°C
Dew Point: 36°F , 2°C
Humidity: 87%
Barometer: 30.05 inHg , 1017.6 hPa
Clouds: Overcast
Visibility: 10 miles , 16 km
Cloud details: Partly cloudy 1900 ft
Mostly cloudy 4300 ft
Overcast 11000 ft
2019/03/22 13:56 KMHS 221356Z AUTO 11004KT 10SM SCT019 BKN043 OVC110 04/02 A3005 RMK AO2 SLP195 T00440017
 
KPTV - Porterville, California, USA
Distance from station: S 212mi, 341km
Updated: Fri, 22-Mar-2019 6:56am PDT
Clear
Clear
 Wind from ESE
Wind: ESE 5 mph , 7 km/h
Temperature: 43°F , 6°C
Wind Chill: 40°F , 4°C
Dew Point: 41°F , 5°C
Humidity: 93%
Barometer: 30.19 inHg , 1022.4 hPa
Clouds: Clear
Visibility: 10 miles , 16 km
2019/03/22 13:56 KPTV 221356Z AUTO 11004KT 10SM CLR 06/05 A3019 RMK AO2 SLP240 T00560050
KLKV - Lakeview, Oregon, USA
Distance from station: N 219mi, 353km
Updated: Fri, 22-Mar-2019 7:53am PDT
Partly cloudy
Partly cloudy
 Wind from S
Wind: S 13 mph , 20 km/h
Temperature: 36°F , 2°C
Wind Chill: 27°F , -3°C
Dew Point: 30°F , -1°C
Humidity: 81%
Barometer: 30.06 inHg , 1017.9 hPa
Clouds: Partly cloudy
Visibility: 10 miles , 16 km
Cloud details: Partly cloudy 2000 ft
2019/03/22 14:53 KLKV 221453Z AUTO 17011KT 10SM SCT020 02/M01 A3006 RMK AO2 SLP194 T00171006 51008 FZRANO
 
KSIY - Montague/Siskiyo, California, USA
Distance from station: NW 237mi, 382km
Updated: Fri, 22-Mar-2019 6:53am PDT
Few Clouds
Few Clouds
 Wind from NE
Wind: NE 8 mph , 13 km/h
Temperature: 34°F , 1°C
Wind Chill: 27°F , -3°C
Dew Point: 28°F , -2°C
Humidity: 81%
Barometer: 30.02 inHg , 1016.6 hPa
Clouds: Few Clouds
Visibility: 10 miles , 16 km
Cloud details: Few Clouds 12000 ft
2019/03/22 13:53 KSIY 221353Z AUTO 04007KT 10SM FEW120 01/M02 A3002 RMK AO2 SLP177 T00061017 $
KPRB - Paso Robles, California, USA
Distance from station: SSW 238mi, 383km
Updated: Fri, 22-Mar-2019 7:39am PDT
Mist, Overcast
Mist, Overcast
 Wind from calm
Wind: Calm
Temperature: 43°F , 6°C
Dew Point: 43°F , 6°C
Humidity: 100%
Barometer: 30.21 inHg , 1023 hPa
Summary: Mist
Clouds: Overcast
Visibility: 3/4 mile , 1.2 km
Cloud details: Overcast 200 ft
2019/03/22 14:39 KPRB 221439Z AUTO 00000KT 3/4SM BR VV002 06/06 A3021 RMK AO2 T00610061
 
KLMT - Klamath Falls, Oregon, USA
Distance from station: NNW 239mi, 385km
Updated: Fri, 22-Mar-2019 6:53am PDT
Clear
Clear
 Wind from S
Wind: S 9 mph , 15 km/h
Temperature: 30°F , -1°C
Wind Chill: 22°F , -6°C
Dew Point: 27°F , -3°C
Humidity: 86%
Barometer: 30.02 inHg , 1016.6 hPa
Clouds: Clear
Visibility: 10 miles , 16 km
2019/03/22 13:53 KLMT 221353Z 17008KT 10SM CLR M01/M03 A3002 RMK AO2 SLP165 T10061033
KEKO - Elko, Nevada, USA
Distance from station: ENE 242mi, 390km
Updated: Fri, 22-Mar-2019 6:56am PDT
Overcast
Overcast
 Wind from SW
Wind: SW 9 mph , 15 km/h
Temperature: 39°F , 4°C
Wind Chill: 33°F , 1°C
Dew Point: 36°F , 2°C
Humidity: 87%
Barometer: 29.98 inHg , 1015.2 hPa
Clouds: Overcast
Visibility: 10 miles , 16 km
Cloud details: Overcast 1200 ft
2019/03/22 13:56 KEKO 221356Z AUTO 22008KT 10SM OVC012 04/02 A2998 RMK AO2 SLP147 T00440022
 
KBFL - Bakersfield, California, USA
Distance from station: S 252mi, 405km
Updated: Fri, 22-Mar-2019 6:54am PDT
Clear
Clear
 Wind from ESE
Wind: ESE 3 mph , 6 km/h
Temperature: 46°F , 8°C
Dew Point: 39°F , 4°C
Humidity: 76%
Barometer: 30.19 inHg , 1022.4 hPa
Clouds: Clear
Visibility: 10 miles , 16 km
2019/03/22 13:54 KBFL 221354Z 12003KT 10SM CLR 08/04 A3019 RMK AO2 SLP220 T00780044
KFOT - Fortuna, California, USA
Distance from station: WNW 256mi, 413km
Updated: Fri, 22-Mar-2019 7:35am PDT
Mostly cloudy
Mostly cloudy
 Wind from ESE
Wind: ESE 25 mph , 41 km/h, Gust: 32 mph , 52 km/h
Temperature: 45°F , 7°C
Wind Chill: 36°F , 2°C
Dew Point: 45°F , 7°C
Humidity: 100%
Barometer: 30.00 inHg , 1015.9 hPa
Clouds: Mostly cloudy
Visibility: 10 miles , 16 km
Cloud details: Partly cloudy 7500 ft
Mostly cloudy 9500 ft
2019/03/22 14:35 KFOT 221435Z AUTO 12022G28KT 10SM SCT075 BKN095 07/07 A3000 RMK AO1
 
KNID - China Lake (naf), California, USA
Distance from station: SSE 259mi, 417km
Updated: Fri, 22-Mar-2019 6:56am PDT
Clear
Clear
 Wind from W
Wind: W 3 mph , 6 km/h
Temperature: 37°F , 3°C
Dew Point: 34°F , 1°C
Humidity: 87%
Barometer: 30.08 inHg , 1018.6 hPa
Clouds: Clear
Visibility: 10 miles , 16 km
2019/03/22 13:56 KNID 221356Z AUTO 26003KT 10SM CLR 03/01 A3008 RMK AO2 SLP191 T00280006 $
KDRA - Desert R/Mercury, Nevada, USA
Distance from station: SE 262mi, 421km
Updated: Fri, 22-Mar-2019 6:56am PDT
Clear
Clear
 Wind from calm
Wind: Calm
Temperature: 39°F , 4°C
Dew Point: 36°F , 2°C
Humidity: 87%
Barometer: 30.07 inHg , 1018.3 hPa
Clouds: Clear
Visibility: 10 miles , 16 km
2019/03/22 13:56 KDRA 221356Z AUTO 00000KT 10SM CLR 04/02 A3007 RMK AO2 SLP173 T00390022
 
KELY - Ely, Nevada, USA
Distance from station: E 262mi, 421km
Updated: Fri, 22-Mar-2019 7:53am PDT
Light snow, Overcast
Light snow, Overcast
 Wind from SSE
Wind: SSE 5 mph , 7 km/h
Temperature: 34°F , 1°C
Wind Chill: 29°F , -2°C
Dew Point: 30°F , -1°C
Humidity: 87%
Barometer: 30.00 inHg , 1015.9 hPa
Summary: Light Snow
Clouds: Overcast
Visibility: 9 miles , 14 km
Cloud details: Overcast 2400 ft
2019/03/22 14:53 KELY 221453Z AUTO 16004KT 9SM -SN OVC024 01/M01 A3000 RMK AO2 SNB1355E09B46 SLP155 P0000 60001 T00061006 53013
KREO - Rome, Oregon, USA
Distance from station: NNE 263mi, 424km
Updated: Fri, 22-Mar-2019 7:52am PDT

 Wind from SSW
Wind: SSW 9 mph , 15 km/h
Temperature: 45°F , 7°C
Wind Chill: 40°F , 4°C
Dew Point: 36°F , 2°C
Humidity: 71%
Barometer: 29.98 inHg , 1015.2 hPa
2019/03/22 14:52 KREO 221452Z AUTO 21008KT 07/02 A2998 RMK AO1 SLP150 T00670022 53009
 
KACV - Arcata/Eureka, California, USA
Distance from station: WNW 268mi, 431km
Updated: Fri, 22-Mar-2019 6:53am PDT
Light rain, Overcast
Light rain, Overcast
 Wind from SE
Wind: SE 16 mph , 26 km/h, Gust: 28 mph , 44 km/h
Temperature: 50°F , 10°C
Wind Chill: 44°F , 7°C
Dew Point: 43°F , 6°C
Humidity: 76%
Barometer: 29.97 inHg , 1014.9 hPa
Summary: Light rain
Clouds: Overcast
Visibility: 8 miles , 13 km
Cloud details: Overcast 7000 ft
2019/03/22 13:53 KACV 221353Z AUTO 13014G24KT 8SM -RA OVC070 10/06 A2997 RMK AO2 PK WND 11029/1340 SLP154 P0003 T01000061
KSBP - San Luis Obispo, California, USA
Distance from station: S 268mi, 431km
Updated: Fri, 22-Mar-2019 6:56am PDT
Mostly cloudy
Mostly cloudy
 Wind from ESE
Wind: ESE 5 mph , 7 km/h
Temperature: 41°F , 5°C
Wind Chill: 38°F , 3°C
Dew Point: 39°F , 4°C
Humidity: 93%
Barometer: 30.18 inHg , 1022 hPa
Clouds: Mostly cloudy
Visibility: 10 miles , 16 km
Cloud details: Mostly cloudy 20000 ft
2019/03/22 13:56 KSBP 221356Z 12004KT 10SM BKN200 05/04 A3018 RMK AO2 SLP220 T00500039
 
KINS - Indian Springs, Nevada, USA
Distance from station: SE 279mi, 449km
Updated: Fri, 22-Mar-2019 6:58am PDT
Clear
Clear
 Wind from WSW
Wind: WSW 14 mph , 22 km/h
Temperature: 43°F , 6°C
Wind Chill: 36°F , 2°C
Dew Point: 37°F , 3°C
Humidity: 81%
Barometer: 30.04 inHg , 1017.3 hPa
Clouds: Clear
Visibility: 10 miles , 16 km
2019/03/22 13:58 KINS 221358Z AUTO 24012KT 10SM CLR 06/03 A3004 RMK AO2 SLP161 T00610033 $
KTSP - Tehachapi, California, USA
Distance from station: SSE 279mi, 449km
Updated: Fri, 22-Mar-2019 7:35am PDT
Mostly cloudy
Mostly cloudy
 Wind from NW
Wind: NW 15 mph , 24 km/h
Temperature: 37°F , 3°C
Wind Chill: 28°F , -2°C
Dew Point: 37°F , 3°C
Humidity: 100%
Barometer: 30.15 inHg , 1021 hPa
Clouds: Mostly cloudy
Visibility: 10 miles , 16 km
Cloud details: Mostly cloudy 2000 ft
2019/03/22 14:35 KTSP 221435Z AUTO 31013KT 10SM BKN020 03/03 A3015 RMK AO2
 
KMFR - Medford, Oregon, USA
Distance from station: NW 284mi, 457km
Updated: Fri, 22-Mar-2019 6:53am PDT
Clear
Clear
 Wind from NW
Wind: NW 3 mph , 6 km/h
Temperature: 37°F , 3°C
Dew Point: 34°F , 1°C
Humidity: 87%
Barometer: 29.98 inHg , 1015.2 hPa
Clouds: Clear
Visibility: 10 miles , 16 km
2019/03/22 13:53 KMFR 221353Z 32003KT 10SM CLR 03/01 A2998 RMK AO2 SLP153 T00330006
KMHV - Mojave, California, USA
Distance from station: SSE 288mi, 463km
Updated: Fri, 22-Mar-2019 7:20am PDT
Clear
Clear
 Wind from WNW
Wind: WNW 22 mph , 35 km/h
Temperature: 48°F , 9°C
Wind Chill: 41°F , 5°C
Dew Point: 32°F , 0°C
Humidity: 54%
Barometer: 30.09 inHg , 1019 hPa
Clouds: Clear
Visibility: 10 miles , 16 km
2019/03/22 14:20 KMHV 221420Z AUTO 29019KT 10SM CLR 09/00 A3009 RMK A01
 
KSMX - Santa Maria, California, USA
Distance from station: S 289mi, 465km
Updated: Fri, 22-Mar-2019 7:51am PDT
Mostly cloudy
Mostly cloudy
 Wind from calm
Wind: Calm
Temperature: 46°F , 8°C
Dew Point: 43°F , 6°C
Humidity: 87%
Barometer: 30.20 inHg , 1022.7 hPa
Clouds: Mostly cloudy
Visibility: 7 miles , 11 km
Cloud details: Mostly cloudy 11000 ft
2019/03/22 14:51 KSMX 221451Z 00000KT 7SM BKN110 08/06 A3020 RMK AO2 SLP230 T00780061 53005
K9L2 - Edwards N-Aux, California, USA
Distance from station: SSE 299mi, 482km
Updated: Fri, 22-Mar-2019 4:58am PDT
NOT Current
Clear
Clear
 Wind from WNW
Wind: WNW 3 mph , 6 km/h
Temperature: 36°F , 2°C
Dew Point: 32°F , 0°C
Humidity: 87%
Barometer: 30.07 inHg , 1018.3 hPa
Clouds: Clear
Visibility: 10 miles , 16 km
2019/03/22 11:58 K9L2 221158Z AUTO 30003KT 10SM CLR 02/00 A3007 RMK AO2 SLP184 T00190003 10072 20019 55002 FZRANO
Honor Flight NV - Honoring all of our Veterans CoCoRaHS (Community Collaborative Rain, Hail and Snow Network) Station Number: NV-DG-2 Live Lightning Map - USA Reno Skywarn Spotter ID: DO21 AlertID Southwestern Weather Network Carson Valley Community Food Closet - providing for the needs of our community